x

Columbia River Bar - 20nm West Of Columbia River Mouth (46029) Wave Buoy

9:50 - Tue 21st Oct 2014 All times are PDT. -7 hours from GMT.

  • Sig Wave height 12.5ft
  • Swell Direction
  • Peak Period 13s
  • Average Period 8s
  • Wind
    25mph, 29mph gusts
  • Sea Temp 61°f
  • Air Temp 60°f
  • Sea Pressure 1011.5mb
  • Columbia River Bar - 20nm West Of Columbia River Mouth
  • Columbia River Bar - 20nm West Of Columbia River Mouth

More Historic Weather Station data

Upgrade to MSW Pro to gain access to the past 30 days of data for over 8000 Wavebouys and Weather Stations around the globe.

Join Pro

Comparision Forecast

View Surf forecast
   
mar. 10/21 9:50 12.5ft 13s 8s 25 29 mph 1011.5mb 61f 60f
8:50 12ft 14s 8s 22 27 mph 1010.9mb 61f 61f
7:50 11ft 12s 8s 20 25 mph 1010.7mb 61f 61f
6:50 12.5ft 14s 9s 20 25 mph 1010.7mb 61f 61f
5:50 12.5ft 14s 9s 18 22 mph 1010.5mb 61f 62f
4:50 13ft 14s 9s 16 18 mph 1010.2mb 61f 61f
3:50 13ft 14s 9s 16 18 mph 1009.6mb 61f 61f
2:50 12ft 15s 8s 18 22 mph 1009.4mb 61f 60f
1:50 12.5ft 15s 8s 20 25 mph 1008.6mb 61f 59f
12:50 13ft 13s 9s 22 25 mph 1008.1mb 61f 60f
lun. 10/20 11:50 12.5ft 16s 8s 20 25 mph 1008.1mb 61f 60f
10:50 12ft 15s 8s 22 27 mph 1007.7mb 61f 60f
9:50 13ft 15s 8s 20 22 mph 1007.3mb 61f 61f
8:50 14ft 15s 9s 20 25 mph 1007mb 61f 61f
7:50 12ft 16s 8s 20 25 mph 1007.1mb 61f 60f
6:50 13.5ft 15s 8s 20 25 mph 1006.5mb 61f 61f
5:50 13ft 15s 8s 22 27 mph 1006.5mb 61f 61f
4:50 13ft 11s 9s 20 25 mph 1006.8mb 61f 61f
3:50 13.5ft 14s 9s 22 27 mph 1006.9mb 62f 60f
2:50 12.5ft 16s 9s 22 27 mph 1006.6mb 62f 61f
1:50 12ft 15s 9s 18 22 mph 1006.6mb 62f 60f
12:50 12.5ft 16s 9s 13 18 mph 1006.5mb 61f 60f
11:50 11.5ft 15s 9s 20 25 mph 1006.2mb 61f 61f
10:50 11ft 15s 8s 18 20 mph 1006.3mb 61f 61f
9:50 12ft 15s 8s 18 20 mph 1005.8mb 61f 60f
8:50 12ft 16s 8s 25 27 mph 1005.2mb 61f 61f
7:50 11.5ft 16s 7s 22 27 mph 1005mb 61f 61f
6:50 13ft 16s 8s 20 22 mph 1005mb 61f 60f
5:50 14ft 13s 8s 25 29 mph 1004.8mb 61f 60f
4:50 14ft 16s 8s 22 25 mph 1004.7mb 61f 60f
3:50 13ft 9s 8s 22 27 mph 1004.8mb 61f 60f
2:50 12.5ft 9s 8s 27 34 mph 1004.6mb 61f 60f
1:50 13ft 13s 8s 20 27 mph 1004.4mb 61f 59f
12:50 13ft 11s 9s 20 27 mph 1004.5mb 61f 59f
dim. 10/19 11:50 12ft 11s 9s 20 25 mph 1004.7mb 61f 59f
10:50 12ft 11s 9s 18 22 mph 1004.5mb 61f 59f
8:50 11ft 11s 8s 18 20 mph 1004.6mb 61f 58f
7:50 11.5ft 11s 8s 13 18 mph 1004.9mb 61f 58f
6:50 12.5ft 10s 7s 18 20 mph 1005mb 61f 58f
5:50 13ft 10s 7s 20 27 mph 1004.7mb 61f 59f
4:50 14ft 10s 7s 34 40 mph 1003.7mb 61f 61f
3:50 15ft 10s 7s 34 40 mph 1004mb 61f 60f
2:50 14.5ft 11s 7s 31 40 mph 1004.2mb 61f 61f
1:50 13.5ft 10s 7s 34 43 mph 1004mb 62f 63f
12:50 13ft 8s 7s 31 38 mph 1004.4mb 62f 63f
11:50 13ft 9s 7s 31 38 mph 1004.8mb 62f 62f
10:50 12.5ft 10s 7s 31 38 mph 1004.7mb 62f 62f
9:50 12ft 10s 7s 29 36 mph 1004.8mb 62f 62f
8:50 11ft 10s 7s 29 34 mph 1004.8mb 62f 62f
7:50 11ft 10s 7s 27 34 mph 1004.8mb 62f 62f
6:50 10ft 10s 6s 27 34 mph 1005mb 62f 61f
5:50 10ft 11s 6s 27 36 mph 1005.1mb 62f 61f
4:50 9ft 10s 6s 25 29 mph 1005.8mb 62f 61f
3:50 9ft 8s 6s 25 27 mph 1006.5mb 62f 60f
2:50 8.5ft 9s 6s 25 29 mph 1007.1mb 62f 61f
1:50 8ft 11s 6s 27 31 mph 1007.2mb 62f 60f
12:50 7ft 11s 6s 27 34 mph 1007.3mb 61f 61f
sam. 10/18 11:50 6ft 12s 6s 20 22 mph 1008.1mb 61f 62f
10:50 8ft 10s 6s 20 25 mph 1008mb 61f 60f
9:50 7ft 10s 6s 22 27 mph 1008.2mb 61f 61f
8:50 7.5ft 10s 6s 20 22 mph 1008.8mb 62f 62f
7:50 8.5ft 10s 7s 18 22 mph 1009.5mb 62f 62f
6:50 9ft 11s 7s 16 20 mph 1010mb 62f 62f
5:50 9ft 11s 7s 20 22 mph 1010.7mb 62f 62f
4:50 9ft 11s 7s 18 22 mph 1011.4mb 62f 61f
3:50 9.5ft 11s 7s 20 22 mph 1011.9mb 62f 61f
2:50 8ft 11s 7s 20 22 mph 1012.2mb 62f 61f
1:50 9ft 11s 7s 18 20 mph 1012.5mb 62f 61f
12:50 8ft 11s 7s 20 25 mph 1012.6mb 62f 61f
11:50 7.5ft 11s 7s 20 25 mph 1012.5mb 61f 61f
10:50 7.5ft 11s 7s 16 18 mph 1012.4mb 61f 62f
9:50 8ft 11s 7s 16 18 mph 1012.5mb 61f 61f
8:50 9ft 11s 7s 16 20 mph 1012.1mb 61f 61f
7:50 10ft 11s 7s 16 20 mph 1011.8mb 61f 61f
6:50 12ft 10s 8s 16 18 mph 1011.6mb 61f 61f
5:50 12.5ft 11s 8s 16 18 mph 1011.1mb 61f 61f
4:50 12ft 10s 8s 11 13 mph 1011.1mb 61f 62f
3:50 12ft 10s 8s 13 16 mph 1010.8mb 61f 62f
2:50 12ft 11s 8s 16 20 mph 1010.7mb 61f 62f
1:50 11.5ft 10s 8s 18 22 mph 1010.2mb 61f 62f
12:50 12ft 11s 8s 20 25 mph 1009.6mb 61f 62f
ven. 10/17 11:50 12ft 11s 8s 20 25 mph 1009.2mb 62f 62f
10:50 13ft 11s 8s 20 25 mph 1008.9mb 61f 62f
9:50 12ft 11s 8s 20 25 mph 1008.2mb 61f 62f
8:50 12ft 11s 7s 25 29 mph 1007.6mb 61f 62f
7:50 11.5ft 11s 7s 25 31 mph 1006.9mb 61f 62f
6:50 13ft 11s 7s 29 34 mph 1006.2mb 61f 62f